sensor_id;sensor_type;location;lat;lon;timestamp;temperature;humidity
983;DHT22;480;48.124;11.578;2023-05-23T00:02:01;19.40;99.90
983;DHT22;480;48.124;11.578;2023-05-23T00:04:32;19.20;99.90
983;DHT22;480;48.124;11.578;2023-05-23T00:07:01;19.10;99.90
983;DHT22;480;48.124;11.578;2023-05-23T00:09:28;19.10;99.90
983;DHT22;480;48.124;11.578;2023-05-23T00:11:55;19.00;99.90
983;DHT22;480;48.124;11.578;2023-05-23T00:14:22;18.90;99.90
983;DHT22;480;48.124;11.578;2023-05-23T00:16:49;18.90;99.90
983;DHT22;480;48.124;11.578;2023-05-23T00:19:17;18.80;99.90
983;DHT22;480;48.124;11.578;2023-05-23T00:21:46;18.70;99.90
983;DHT22;480;48.124;11.578;2023-05-23T00:24:14;18.70;99.90
983;DHT22;480;48.124;11.578;2023-05-23T00:26:43;18.60;99.90
983;DHT22;480;48.124;11.578;2023-05-23T00:29:10;18.60;99.90
983;DHT22;480;48.124;11.578;2023-05-23T00:31:40;18.70;99.90
983;DHT22;480;48.124;11.578;2023-05-23T00:34:07;18.70;99.90
983;DHT22;480;48.124;11.578;2023-05-23T00:36:36;18.70;99.90
983;DHT22;480;48.124;11.578;2023-05-23T00:39:03;18.80;99.90
983;DHT22;480;48.124;11.578;2023-05-23T00:41:30;18.90;99.90
983;DHT22;480;48.124;11.578;2023-05-23T00:43:57;18.90;99.90
983;DHT22;480;48.124;11.578;2023-05-23T00:46:25;19.00;99.90
983;DHT22;480;48.124;11.578;2023-05-23T00:48:52;19.00;99.90
983;DHT22;480;48.124;11.578;2023-05-23T00:51:20;19.10;99.90
983;DHT22;480;48.124;11.578;2023-05-23T00:53:49;19.20;99.90
983;DHT22;480;48.124;11.578;2023-05-23T00:56:16;19.20;99.90
983;DHT22;480;48.124;11.578;2023-05-23T00:58:43;19.20;99.90
983;DHT22;480;48.124;11.578;2023-05-23T01:01:10;19.00;99.90
983;DHT22;480;48.124;11.578;2023-05-23T01:03:37;19.10;99.90
983;DHT22;480;48.124;11.578;2023-05-23T01:06:04;18.90;99.90
983;DHT22;480;48.124;11.578;2023-05-23T01:08:31;18.90;99.90
983;DHT22;480;48.124;11.578;2023-05-23T01:11:05;18.80;99.90
983;DHT22;480;48.124;11.578;2023-05-23T01:13:40;18.80;99.90
983;DHT22;480;48.124;11.578;2023-05-23T01:16:13;18.90;99.90
983;DHT22;480;48.124;11.578;2023-05-23T01:18:47;19.10;99.90
983;DHT22;480;48.124;11.578;2023-05-23T01:21:23;19.00;99.90
983;DHT22;480;48.124;11.578;2023-05-23T01:24:18;19.00;99.90
983;DHT22;480;48.124;11.578;2023-05-23T01:27:07;19.00;99.90
983;DHT22;480;48.124;11.578;2023-05-23T01:29:42;19.10;99.90
983;DHT22;480;48.124;11.578;2023-05-23T01:32:11;19.10;99.90
983;DHT22;480;48.124;11.578;2023-05-23T01:34:40;19.00;99.90
983;DHT22;480;48.124;11.578;2023-05-23T01:37:09;18.80;99.90
983;DHT22;480;48.124;11.578;2023-05-23T01:39:36;18.90;99.90
983;DHT22;480;48.124;11.578;2023-05-23T01:42:04;18.80;99.90
983;DHT22;480;48.124;11.578;2023-05-23T01:44:33;18.90;99.90
983;DHT22;480;48.124;11.578;2023-05-23T01:47:02;19.00;99.90
983;DHT22;480;48.124;11.578;2023-05-23T01:49:32;18.90;99.90
983;DHT22;480;48.124;11.578;2023-05-23T01:52:01;18.80;99.90
983;DHT22;480;48.124;11.578;2023-05-23T01:54:28;18.70;99.90
983;DHT22;480;48.124;11.578;2023-05-23T01:56:57;18.80;99.90
983;DHT22;480;48.124;11.578;2023-05-23T01:59:25;18.70;99.90
983;DHT22;480;48.124;11.578;2023-05-23T02:01:52;18.80;99.90
983;DHT22;480;48.124;11.578;2023-05-23T02:04:21;18.80;99.90
983;DHT22;480;48.124;11.578;2023-05-23T02:06:47;18.80;99.90
983;DHT22;480;48.124;11.578;2023-05-23T02:09:15;18.70;99.90
983;DHT22;480;48.124;11.578;2023-05-23T02:11:42;18.80;99.90
983;DHT22;480;48.124;11.578;2023-05-23T02:14:10;18.70;99.90
983;DHT22;480;48.124;11.578;2023-05-23T02:16:37;18.70;99.90
983;DHT22;480;48.124;11.578;2023-05-23T02:19:04;18.50;99.90
983;DHT22;480;48.124;11.578;2023-05-23T02:21:32;18.60;99.90
983;DHT22;480;48.124;11.578;2023-05-23T02:23:59;18.50;99.90
983;DHT22;480;48.124;11.578;2023-05-23T02:26:26;18.50;99.90
983;DHT22;480;48.124;11.578;2023-05-23T02:28:53;18.50;99.90
983;DHT22;480;48.124;11.578;2023-05-23T02:31:20;18.50;99.90
983;DHT22;480;48.124;11.578;2023-05-23T02:33:48;18.50;99.90
983;DHT22;480;48.124;11.578;2023-05-23T02:36:14;18.50;99.90
983;DHT22;480;48.124;11.578;2023-05-23T02:38:43;18.60;99.90
983;DHT22;480;48.124;11.578;2023-05-23T02:41:10;18.50;99.90
983;DHT22;480;48.124;11.578;2023-05-23T02:43:37;18.40;99.90
983;DHT22;480;48.124;11.578;2023-05-23T02:46:04;18.50;99.90
983;DHT22;480;48.124;11.578;2023-05-23T02:48:31;18.40;99.90
983;DHT22;480;48.124;11.578;2023-05-23T02:50:58;18.40;99.90
983;DHT22;480;48.124;11.578;2023-05-23T02:53:25;18.30;99.90
983;DHT22;480;48.124;11.578;2023-05-23T02:55:53;18.20;99.90
983;DHT22;480;48.124;11.578;2023-05-23T02:58:20;18.10;99.90
983;DHT22;480;48.124;11.578;2023-05-23T03:00:47;18.00;99.90
983;DHT22;480;48.124;11.578;2023-05-23T03:03:14;18.10;99.90
983;DHT22;480;48.124;11.578;2023-05-23T03:05:42;18.00;99.90
983;DHT22;480;48.124;11.578;2023-05-23T03:08:09;17.90;99.90
983;DHT22;480;48.124;11.578;2023-05-23T03:10:36;17.90;99.90
983;DHT22;480;48.124;11.578;2023-05-23T03:13:04;17.90;99.90
983;DHT22;480;48.124;11.578;2023-05-23T03:15:31;18.00;99.90
983;DHT22;480;48.124;11.578;2023-05-23T03:17:58;18.00;99.90
983;DHT22;480;48.124;11.578;2023-05-23T03:20:25;18.10;99.90
983;DHT22;480;48.124;11.578;2023-05-23T03:22:52;18.00;99.90
983;DHT22;480;48.124;11.578;2023-05-23T03:25:19;17.90;99.90
983;DHT22;480;48.124;11.578;2023-05-23T03:27:46;18.00;99.90
983;DHT22;480;48.124;11.578;2023-05-23T03:30:14;17.90;99.90
983;DHT22;480;48.124;11.578;2023-05-23T03:32:41;17.90;99.90
983;DHT22;480;48.124;11.578;2023-05-23T03:35:08;17.80;99.90
983;DHT22;480;48.124;11.578;2023-05-23T03:37:36;17.80;99.90
983;DHT22;480;48.124;11.578;2023-05-23T03:40:03;17.80;99.90
983;DHT22;480;48.124;11.578;2023-05-23T03:42:31;17.80;99.90
983;DHT22;480;48.124;11.578;2023-05-23T03:44:58;17.70;99.90
983;DHT22;480;48.124;11.578;2023-05-23T03:47:26;17.80;99.90
983;DHT22;480;48.124;11.578;2023-05-23T03:49:53;17.60;99.90
983;DHT22;480;48.124;11.578;2023-05-23T03:52:20;17.70;99.90
983;DHT22;480;48.124;11.578;2023-05-23T03:54:47;17.70;99.90
983;DHT22;480;48.124;11.578;2023-05-23T03:57:14;17.70;99.90
983;DHT22;480;48.124;11.578;2023-05-23T03:59:41;17.60;99.90
983;DHT22;480;48.124;11.578;2023-05-23T04:02:08;17.60;99.90
983;DHT22;480;48.124;11.578;2023-05-23T04:04:37;17.50;99.90
983;DHT22;480;48.124;11.578;2023-05-23T04:07:04;17.40;99.90
983;DHT22;480;48.124;11.578;2023-05-23T04:09:33;17.30;99.90
983;DHT22;480;48.124;11.578;2023-05-23T04:12:00;17.40;99.90
983;DHT22;480;48.124;11.578;2023-05-23T04:14:27;17.40;99.90
983;DHT22;480;48.124;11.578;2023-05-23T04:16:54;17.40;99.90
983;DHT22;480;48.124;11.578;2023-05-23T04:19:21;17.50;99.90
983;DHT22;480;48.124;11.578;2023-05-23T04:21:49;17.50;99.90
983;DHT22;480;48.124;11.578;2023-05-23T04:24:16;17.50;99.90
983;DHT22;480;48.124;11.578;2023-05-23T04:26:43;17.50;99.90
983;DHT22;480;48.124;11.578;2023-05-23T04:29:10;17.60;99.90
983;DHT22;480;48.124;11.578;2023-05-23T04:31:37;17.60;99.90
983;DHT22;480;48.124;11.578;2023-05-23T04:34:04;17.60;99.90
983;DHT22;480;48.124;11.578;2023-05-23T04:36:32;17.50;99.90
983;DHT22;480;48.124;11.578;2023-05-23T04:39:04;17.60;99.90
983;DHT22;480;48.124;11.578;2023-05-23T04:41:31;17.70;99.90
983;DHT22;480;48.124;11.578;2023-05-23T04:43:58;17.70;99.90
983;DHT22;480;48.124;11.578;2023-05-23T04:46:25;17.60;99.90
983;DHT22;480;48.124;11.578;2023-05-23T04:48:52;17.60;99.90
983;DHT22;480;48.124;11.578;2023-05-23T04:51:19;17.70;99.90
983;DHT22;480;48.124;11.578;2023-05-23T04:53:46;17.70;99.90
983;DHT22;480;48.124;11.578;2023-05-23T04:56:15;17.70;99.90
983;DHT22;480;48.124;11.578;2023-05-23T04:58:45;17.70;99.90
983;DHT22;480;48.124;11.578;2023-05-23T05:01:12;17.70;99.90
983;DHT22;480;48.124;11.578;2023-05-23T05:03:40;17.80;99.90
983;DHT22;480;48.124;11.578;2023-05-23T05:06:07;17.80;99.90
983;DHT22;480;48.124;11.578;2023-05-23T05:08:34;17.80;99.90
983;DHT22;480;48.124;11.578;2023-05-23T05:11:01;17.80;99.90
983;DHT22;480;48.124;11.578;2023-05-23T05:13:30;17.90;99.90
983;DHT22;480;48.124;11.578;2023-05-23T05:15:57;18.00;99.90
983;DHT22;480;48.124;11.578;2023-05-23T05:18:25;17.90;99.90
983;DHT22;480;48.124;11.578;2023-05-23T05:20:52;17.90;99.90
983;DHT22;480;48.124;11.578;2023-05-23T05:23:24;18.00;99.90
983;DHT22;480;48.124;11.578;2023-05-23T05:25:53;18.10;99.90
983;DHT22;480;48.124;11.578;2023-05-23T05:28:20;18.10;99.90
983;DHT22;480;48.124;11.578;2023-05-23T05:30:49;18.20;99.90
983;DHT22;480;48.124;11.578;2023-05-23T05:33:18;18.20;99.90
983;DHT22;480;48.124;11.578;2023-05-23T05:35:48;18.30;99.90
983;DHT22;480;48.124;11.578;2023-05-23T05:38:15;18.20;99.90
983;DHT22;480;48.124;11.578;2023-05-23T05:40:43;18.30;99.90
983;DHT22;480;48.124;11.578;2023-05-23T05:43:10;18.50;99.90
983;DHT22;480;48.124;11.578;2023-05-23T05:45:37;18.50;99.90
983;DHT22;480;48.124;11.578;2023-05-23T05:48:06;18.60;99.90
983;DHT22;480;48.124;11.578;2023-05-23T05:50:33;18.50;99.90
983;DHT22;480;48.124;11.578;2023-05-23T05:53:00;18.60;99.90
983;DHT22;480;48.124;11.578;2023-05-23T05:55:27;18.60;99.90
983;DHT22;480;48.124;11.578;2023-05-23T05:57:55;18.60;99.90
983;DHT22;480;48.124;11.578;2023-05-23T06:00:21;18.70;99.90
983;DHT22;480;48.124;11.578;2023-05-23T06:02:48;18.70;99.90
983;DHT22;480;48.124;11.578;2023-05-23T06:05:17;18.70;99.90
983;DHT22;480;48.124;11.578;2023-05-23T06:07:47;18.70;99.90
983;DHT22;480;48.124;11.578;2023-05-23T06:10:14;18.70;99.90
983;DHT22;480;48.124;11.578;2023-05-23T06:12:42;18.80;99.90
983;DHT22;480;48.124;11.578;2023-05-23T06:15:10;18.90;99.90
983;DHT22;480;48.124;11.578;2023-05-23T06:17:37;19.00;99.90
983;DHT22;480;48.124;11.578;2023-05-23T06:20:05;18.90;99.90
983;DHT22;480;48.124;11.578;2023-05-23T06:22:34;19.10;99.90
983;DHT22;480;48.124;11.578;2023-05-23T06:25:01;19.10;99.90
983;DHT22;480;48.124;11.578;2023-05-23T06:27:28;19.20;99.90
983;DHT22;480;48.124;11.578;2023-05-23T06:29:55;19.30;99.90
983;DHT22;480;48.124;11.578;2023-05-23T06:32:23;19.30;99.90
983;DHT22;480;48.124;11.578;2023-05-23T06:34:49;19.50;99.90
983;DHT22;480;48.124;11.578;2023-05-23T06:37:16;19.40;99.90
983;DHT22;480;48.124;11.578;2023-05-23T06:39:45;19.30;99.90
983;DHT22;480;48.124;11.578;2023-05-23T06:42:13;19.30;99.90
983;DHT22;480;48.124;11.578;2023-05-23T06:44:40;19.30;99.90
983;DHT22;480;48.124;11.578;2023-05-23T06:47:07;19.30;99.90
983;DHT22;480;48.124;11.578;2023-05-23T06:49:34;19.20;99.90
983;DHT22;480;48.124;11.578;2023-05-23T06:52:01;19.30;99.90
983;DHT22;480;48.124;11.578;2023-05-23T06:54:28;19.40;99.90
983;DHT22;480;48.124;11.578;2023-05-23T06:56:56;19.50;99.90
983;DHT22;480;48.124;11.578;2023-05-23T06:59:24;19.50;99.90
983;DHT22;480;48.124;11.578;2023-05-23T07:01:51;19.60;99.90
983;DHT22;480;48.124;11.578;2023-05-23T07:04:17;19.60;99.90
983;DHT22;480;48.124;11.578;2023-05-23T07:06:44;19.80;99.90
983;DHT22;480;48.124;11.578;2023-05-23T07:09:11;19.90;99.90
983;DHT22;480;48.124;11.578;2023-05-23T07:11:39;19.90;99.90
983;DHT22;480;48.124;11.578;2023-05-23T07:14:07;19.90;99.90
983;DHT22;480;48.124;11.578;2023-05-23T07:16:34;20.00;99.90
983;DHT22;480;48.124;11.578;2023-05-23T07:19:01;20.10;99.90
983;DHT22;480;48.124;11.578;2023-05-23T07:21:29;20.40;99.90
983;DHT22;480;48.124;11.578;2023-05-23T07:23:57;20.50;99.90
983;DHT22;480;48.124;11.578;2023-05-23T07:26:24;20.50;99.90
983;DHT22;480;48.124;11.578;2023-05-23T07:28:52;20.50;99.90
983;DHT22;480;48.124;11.578;2023-05-23T07:31:20;20.50;99.90
983;DHT22;480;48.124;11.578;2023-05-23T07:33:47;20.50;99.90
983;DHT22;480;48.124;11.578;2023-05-23T07:36:14;20.40;99.90
983;DHT22;480;48.124;11.578;2023-05-23T07:38:41;20.40;99.90
983;DHT22;480;48.124;11.578;2023-05-23T07:41:08;20.30;99.90
983;DHT22;480;48.124;11.578;2023-05-23T07:43:35;20.20;99.90
983;DHT22;480;48.124;11.578;2023-05-23T07:46:02;20.20;99.90
983;DHT22;480;48.124;11.578;2023-05-23T07:48:30;20.20;99.90
983;DHT22;480;48.124;11.578;2023-05-23T07:50:57;20.30;99.90
983;DHT22;480;48.124;11.578;2023-05-23T07:53:24;20.40;99.90
983;DHT22;480;48.124;11.578;2023-05-23T07:55:51;20.50;99.90
983;DHT22;480;48.124;11.578;2023-05-23T07:58:18;20.50;99.90
983;DHT22;480;48.124;11.578;2023-05-23T08:00:46;20.60;99.90
983;DHT22;480;48.124;11.578;2023-05-23T08:03:16;20.60;99.90
983;DHT22;480;48.124;11.578;2023-05-23T08:05:45;20.50;99.90
983;DHT22;480;48.124;11.578;2023-05-23T08:08:12;20.50;99.90
983;DHT22;480;48.124;11.578;2023-05-23T08:10:39;20.40;99.90
983;DHT22;480;48.124;11.578;2023-05-23T08:13:08;20.30;99.90
983;DHT22;480;48.124;11.578;2023-05-23T08:15:36;20.20;99.90
983;DHT22;480;48.124;11.578;2023-05-23T08:18:05;20.10;99.90
983;DHT22;480;48.124;11.578;2023-05-23T08:20:32;20.10;99.90
983;DHT22;480;48.124;11.578;2023-05-23T08:23:01;20.00;99.90
983;DHT22;480;48.124;11.578;2023-05-23T08:25:28;20.00;99.90
983;DHT22;480;48.124;11.578;2023-05-23T08:27:57;20.00;99.90
983;DHT22;480;48.124;11.578;2023-05-23T08:30:27;20.00;99.90
983;DHT22;480;48.124;11.578;2023-05-23T08:32:55;20.10;99.90
983;DHT22;480;48.124;11.578;2023-05-23T08:35:22;20.10;99.90
983;DHT22;480;48.124;11.578;2023-05-23T08:37:49;20.10;99.90
983;DHT22;480;48.124;11.578;2023-05-23T08:40:20;20.20;99.90
983;DHT22;480;48.124;11.578;2023-05-23T08:42:47;20.20;99.90
983;DHT22;480;48.124;11.578;2023-05-23T08:45:15;20.30;99.90
983;DHT22;480;48.124;11.578;2023-05-23T08:47:43;20.20;99.90
983;DHT22;480;48.124;11.578;2023-05-23T08:50:11;20.20;99.90
983;DHT22;480;48.124;11.578;2023-05-23T08:52:43;20.10;99.90
983;DHT22;480;48.124;11.578;2023-05-23T08:55:13;20.10;99.90
983;DHT22;480;48.124;11.578;2023-05-23T08:57:43;20.10;99.90
983;DHT22;480;48.124;11.578;2023-05-23T09:00:12;20.20;99.90
983;DHT22;480;48.124;11.578;2023-05-23T09:02:43;20.10;99.90
983;DHT22;480;48.124;11.578;2023-05-23T09:05:10;20.20;99.90
983;DHT22;480;48.124;11.578;2023-05-23T09:07:38;20.20;99.90
983;DHT22;480;48.124;11.578;2023-05-23T09:10:06;20.30;99.90
983;DHT22;480;48.124;11.578;2023-05-23T09:12:34;20.40;99.90
983;DHT22;480;48.124;11.578;2023-05-23T09:15:04;20.50;99.90
983;DHT22;480;48.124;11.578;2023-05-23T09:17:32;20.50;99.90
983;DHT22;480;48.124;11.578;2023-05-23T09:19:59;20.70;99.90
983;DHT22;480;48.124;11.578;2023-05-23T09:22:27;20.90;99.90
983;DHT22;480;48.124;11.578;2023-05-23T09:24:55;20.80;99.90
983;DHT22;480;48.124;11.578;2023-05-23T09:27:22;20.80;99.90
983;DHT22;480;48.124;11.578;2023-05-23T09:29:49;20.70;99.90
983;DHT22;480;48.124;11.578;2023-05-23T09:32:18;20.50;99.90
983;DHT22;480;48.124;11.578;2023-05-23T09:34:56;20.60;99.90
983;DHT22;480;48.124;11.578;2023-05-23T09:37:28;20.50;99.90
983;DHT22;480;48.124;11.578;2023-05-23T09:39:56;20.60;99.90
983;DHT22;480;48.124;11.578;2023-05-23T09:42:24;20.80;99.90
983;DHT22;480;48.124;11.578;2023-05-23T09:44:53;20.80;99.90
983;DHT22;480;48.124;11.578;2023-05-23T09:47:21;20.70;99.90
983;DHT22;480;48.124;11.578;2023-05-23T09:49:49;20.50;99.90
983;DHT22;480;48.124;11.578;2023-05-23T09:52:16;20.30;99.90
983;DHT22;480;48.124;11.578;2023-05-23T09:54:44;20.30;99.90
983;DHT22;480;48.124;11.578;2023-05-23T09:57:16;20.20;99.90
983;DHT22;480;48.124;11.578;2023-05-23T09:59:51;20.10;99.90
983;DHT22;480;48.124;11.578;2023-05-23T10:02:31;20.20;99.90
983;DHT22;480;48.124;11.578;2023-05-23T10:05:06;20.10;99.90
983;DHT22;480;48.124;11.578;2023-05-23T10:07:35;20.10;99.90
983;DHT22;480;48.124;11.578;2023-05-23T10:10:03;20.00;99.90
983;DHT22;480;48.124;11.578;2023-05-23T10:12:44;20.10;99.90
983;DHT22;480;48.124;11.578;2023-05-23T10:15:14;20.20;99.90
983;DHT22;480;48.124;11.578;2023-05-23T10:18:06;20.40;99.90
983;DHT22;480;48.124;11.578;2023-05-23T10:20:35;20.50;99.90
983;DHT22;480;48.124;11.578;2023-05-23T10:23:04;20.70;99.90
983;DHT22;480;48.124;11.578;2023-05-23T10:25:31;20.80;99.90
983;DHT22;480;48.124;11.578;2023-05-23T10:28:00;20.80;99.90
983;DHT22;480;48.124;11.578;2023-05-23T10:30:27;20.70;99.90
983;DHT22;480;48.124;11.578;2023-05-23T10:32:55;20.70;99.90
983;DHT22;480;48.124;11.578;2023-05-23T10:35:31;20.60;99.90
983;DHT22;480;48.124;11.578;2023-05-23T10:38:07;20.60;99.90
983;DHT22;480;48.124;11.578;2023-05-23T10:40:47;20.50;99.90
983;DHT22;480;48.124;11.578;2023-05-23T10:43:22;20.60;99.90
983;DHT22;480;48.124;11.578;2023-05-23T10:45:51;20.60;99.90
983;DHT22;480;48.124;11.578;2023-05-23T10:48:22;20.80;99.90
983;DHT22;480;48.124;11.578;2023-05-23T10:51:06;20.90;99.90
983;DHT22;480;48.124;11.578;2023-05-23T10:53:35;20.90;99.90
983;DHT22;480;48.124;11.578;2023-05-23T10:56:04;21.00;99.90
983;DHT22;480;48.124;11.578;2023-05-23T10:58:33;20.80;99.90
983;DHT22;480;48.124;11.578;2023-05-23T11:01:04;20.80;99.90
983;DHT22;480;48.124;11.578;2023-05-23T11:03:35;21.10;99.90
983;DHT22;480;48.124;11.578;2023-05-23T11:06:04;21.60;99.90
983;DHT22;480;48.124;11.578;2023-05-23T11:08:39;21.80;99.90
983;DHT22;480;48.124;11.578;2023-05-23T11:11:07;22.10;99.90
983;DHT22;480;48.124;11.578;2023-05-23T11:13:53;22.20;99.90
983;DHT22;480;48.124;11.578;2023-05-23T11:16:25;22.20;99.90
983;DHT22;480;48.124;11.578;2023-05-23T11:19:20;22.20;99.90
983;DHT22;480;48.124;11.578;2023-05-23T11:21:53;22.20;99.90
983;DHT22;480;48.124;11.578;2023-05-23T11:24:22;22.20;99.90
983;DHT22;480;48.124;11.578;2023-05-23T11:26:53;22.40;99.90
983;DHT22;480;48.124;11.578;2023-05-23T11:29:25;22.60;99.90
983;DHT22;480;48.124;11.578;2023-05-23T11:31:53;23.10;99.90
983;DHT22;480;48.124;11.578;2023-05-23T11:34:20;23.70;99.90
983;DHT22;480;48.124;11.578;2023-05-23T11:36:52;23.60;99.90
983;DHT22;480;48.124;11.578;2023-05-23T11:39:21;23.70;99.90
983;DHT22;480;48.124;11.578;2023-05-23T11:41:58;23.90;99.90
983;DHT22;480;48.124;11.578;2023-05-23T11:44:25;24.30;99.90
983;DHT22;480;48.124;11.578;2023-05-23T11:46:59;24.50;99.90
983;DHT22;480;48.124;11.578;2023-05-23T11:49:28;24.70;99.90
983;DHT22;480;48.124;11.578;2023-05-23T11:51:57;24.80;99.90
983;DHT22;480;48.124;11.578;2023-05-23T11:54:26;25.00;99.90
983;DHT22;480;48.124;11.578;2023-05-23T11:56:53;25.20;99.90
983;DHT22;480;48.124;11.578;2023-05-23T11:59:20;25.10;99.90
983;DHT22;480;48.124;11.578;2023-05-23T12:01:48;25.20;99.90
983;DHT22;480;48.124;11.578;2023-05-23T12:04:15;25.30;99.90
983;DHT22;480;48.124;11.578;2023-05-23T12:06:45;25.30;99.90
983;DHT22;480;48.124;11.578;2023-05-23T12:09:12;25.30;99.90
983;DHT22;480;48.124;11.578;2023-05-23T12:11:42;25.00;99.90
983;DHT22;480;48.124;11.578;2023-05-23T12:14:14;24.50;99.90
983;DHT22;480;48.124;11.578;2023-05-23T12:16:42;24.00;99.90
983;DHT22;480;48.124;11.578;2023-05-23T12:19:10;23.90;99.90
983;DHT22;480;48.124;11.578;2023-05-23T12:21:41;24.30;99.90
983;DHT22;480;48.124;11.578;2023-05-23T12:24:16;24.50;99.90
983;DHT22;480;48.124;11.578;2023-05-23T12:26:52;24.90;99.90
983;DHT22;480;48.124;11.578;2023-05-23T12:29:20;25.20;99.90
983;DHT22;480;48.124;11.578;2023-05-23T12:31:48;24.90;99.90
983;DHT22;480;48.124;11.578;2023-05-23T12:34:16;24.80;99.90
983;DHT22;480;48.124;11.578;2023-05-23T12:36:43;24.60;99.90
983;DHT22;480;48.124;11.578;2023-05-23T12:39:11;24.40;99.90
983;DHT22;480;48.124;11.578;2023-05-23T12:41:40;24.30;99.90
983;DHT22;480;48.124;11.578;2023-05-23T12:44:11;24.60;99.90
983;DHT22;480;48.124;11.578;2023-05-23T12:46:40;24.40;99.90
983;DHT22;480;48.124;11.578;2023-05-23T12:49:08;24.20;99.90
983;DHT22;480;48.124;11.578;2023-05-23T12:51:35;23.90;99.90
983;DHT22;480;48.124;11.578;2023-05-23T12:54:02;24.10;99.90
983;DHT22;480;48.124;11.578;2023-05-23T12:56:29;23.80;99.90
983;DHT22;480;48.124;11.578;2023-05-23T12:58:56;23.70;99.90
983;DHT22;480;48.124;11.578;2023-05-23T13:01:24;23.80;99.90
983;DHT22;480;48.124;11.578;2023-05-23T13:03:51;24.10;99.90
983;DHT22;480;48.124;11.578;2023-05-23T13:06:18;24.80;99.90
983;DHT22;480;48.124;11.578;2023-05-23T13:08:45;24.80;99.90
983;DHT22;480;48.124;11.578;2023-05-23T13:11:16;24.50;99.90
983;DHT22;480;48.124;11.578;2023-05-23T13:13:43;24.20;99.90
983;DHT22;480;48.124;11.578;2023-05-23T13:16:11;24.40;99.90
983;DHT22;480;48.124;11.578;2023-05-23T13:18:39;24.60;99.90
983;DHT22;480;48.124;11.578;2023-05-23T13:21:06;24.70;99.90
983;DHT22;480;48.124;11.578;2023-05-23T13:23:33;24.60;99.90
983;DHT22;480;48.124;11.578;2023-05-23T13:26:02;25.00;99.90
983;DHT22;480;48.124;11.578;2023-05-23T13:28:29;24.90;99.90
983;DHT22;480;48.124;11.578;2023-05-23T13:30:56;25.10;99.90
983;DHT22;480;48.124;11.578;2023-05-23T13:33:23;25.20;99.90
983;DHT22;480;48.124;11.578;2023-05-23T13:35:51;25.30;99.90
983;DHT22;480;48.124;11.578;2023-05-23T13:38:19;25.20;99.90
983;DHT22;480;48.124;11.578;2023-05-23T13:40:46;25.10;99.90
983;DHT22;480;48.124;11.578;2023-05-23T13:43:13;25.40;99.90
983;DHT22;480;48.124;11.578;2023-05-23T13:45:40;25.70;99.90
983;DHT22;480;48.124;11.578;2023-05-23T13:48:07;25.70;99.90
983;DHT22;480;48.124;11.578;2023-05-23T13:50:34;25.50;99.90
983;DHT22;480;48.124;11.578;2023-05-23T13:53:02;25.50;99.90
983;DHT22;480;48.124;11.578;2023-05-23T13:55:36;25.40;99.90
983;DHT22;480;48.124;11.578;2023-05-23T13:58:03;25.40;99.90
983;DHT22;480;48.124;11.578;2023-05-23T14:00:30;25.00;99.90
983;DHT22;480;48.124;11.578;2023-05-23T14:02:57;24.50;99.90
983;DHT22;480;48.124;11.578;2023-05-23T14:05:24;24.30;99.90
983;DHT22;480;48.124;11.578;2023-05-23T14:07:51;24.10;99.90
983;DHT22;480;48.124;11.578;2023-05-23T14:10:19;24.00;99.90
983;DHT22;480;48.124;11.578;2023-05-23T14:12:46;23.70;99.90
983;DHT22;480;48.124;11.578;2023-05-23T14:15:14;23.60;99.90
983;DHT22;480;48.124;11.578;2023-05-23T14:17:42;23.50;99.90
983;DHT22;480;48.124;11.578;2023-05-23T14:20:09;23.50;99.90
983;DHT22;480;48.124;11.578;2023-05-23T14:22:36;23.60;99.90
983;DHT22;480;48.124;11.578;2023-05-23T14:25:04;23.70;99.90
983;DHT22;480;48.124;11.578;2023-05-23T14:27:33;23.20;99.90
983;DHT22;480;48.124;11.578;2023-05-23T14:29:59;22.40;99.90
983;DHT22;480;48.124;11.578;2023-05-23T14:32:26;22.10;99.90
983;DHT22;480;48.124;11.578;2023-05-23T14:34:53;21.90;99.90
983;DHT22;480;48.124;11.578;2023-05-23T14:37:20;21.70;99.90
983;DHT22;480;48.124;11.578;2023-05-23T14:39:47;21.50;99.90
983;DHT22;480;48.124;11.578;2023-05-23T14:42:14;21.50;99.90
983;DHT22;480;48.124;11.578;2023-05-23T14:44:43;21.40;99.90
983;DHT22;480;48.124;11.578;2023-05-23T14:47:10;21.40;99.90
983;DHT22;480;48.124;11.578;2023-05-23T14:49:36;21.50;99.90
983;DHT22;480;48.124;11.578;2023-05-23T14:52:04;21.40;99.90
983;DHT22;480;48.124;11.578;2023-05-23T14:54:31;21.50;99.90
983;DHT22;480;48.124;11.578;2023-05-23T14:56:58;21.40;99.90
983;DHT22;480;48.124;11.578;2023-05-23T14:59:25;21.20;99.90
983;DHT22;480;48.124;11.578;2023-05-23T15:01:54;21.10;99.90
983;DHT22;480;48.124;11.578;2023-05-23T15:04:21;21.00;99.90
983;DHT22;480;48.124;11.578;2023-05-23T15:06:48;20.90;99.90
983;DHT22;480;48.124;11.578;2023-05-23T15:09:16;21.00;99.90
983;DHT22;480;48.124;11.578;2023-05-23T15:11:43;21.10;99.90
983;DHT22;480;48.124;11.578;2023-05-23T15:14:11;21.20;99.90
983;DHT22;480;48.124;11.578;2023-05-23T15:16:38;21.20;99.90
983;DHT22;480;48.124;11.578;2023-05-23T15:19:10;21.20;99.90
983;DHT22;480;48.124;11.578;2023-05-23T15:21:37;21.30;99.90
983;DHT22;480;48.124;11.578;2023-05-23T15:24:04;21.30;99.90
983;DHT22;480;48.124;11.578;2023-05-23T15:26:33;21.50;99.90
983;DHT22;480;48.124;11.578;2023-05-23T15:29:00;21.60;99.90
983;DHT22;480;48.124;11.578;2023-05-23T15:31:27;21.50;99.90
983;DHT22;480;48.124;11.578;2023-05-23T15:33:53;21.40;99.90
983;DHT22;480;48.124;11.578;2023-05-23T15:36:22;21.40;99.90
983;DHT22;480;48.124;11.578;2023-05-23T15:38:49;21.30;99.90
983;DHT22;480;48.124;11.578;2023-05-23T15:41:16;21.30;99.90
983;DHT22;480;48.124;11.578;2023-05-23T15:43:43;21.30;99.90
983;DHT22;480;48.124;11.578;2023-05-23T15:46:10;21.20;99.90
983;DHT22;480;48.124;11.578;2023-05-23T15:48:37;21.40;99.90
983;DHT22;480;48.124;11.578;2023-05-23T15:51:04;21.40;99.90
983;DHT22;480;48.124;11.578;2023-05-23T15:53:32;21.60;99.90
983;DHT22;480;48.124;11.578;2023-05-23T15:56:00;21.50;99.90
983;DHT22;480;48.124;11.578;2023-05-23T15:58:26;21.50;99.90
983;DHT22;480;48.124;11.578;2023-05-23T16:00:53;21.20;99.90
983;DHT22;480;48.124;11.578;2023-05-23T16:03:20;21.10;99.90
983;DHT22;480;48.124;11.578;2023-05-23T16:05:47;21.10;99.90
983;DHT22;480;48.124;11.578;2023-05-23T16:08:14;21.00;99.90
983;DHT22;480;48.124;11.578;2023-05-23T16:10:43;21.00;99.90
983;DHT22;480;48.124;11.578;2023-05-23T16:13:10;20.90;99.90
983;DHT22;480;48.124;11.578;2023-05-23T16:15:37;20.90;99.90
983;DHT22;480;48.124;11.578;2023-05-23T16:18:04;21.00;99.90
983;DHT22;480;48.124;11.578;2023-05-23T16:20:31;21.10;99.90
983;DHT22;480;48.124;11.578;2023-05-23T16:22:59;21.10;99.90
983;DHT22;480;48.124;11.578;2023-05-23T16:25:26;21.20;99.90